Time;durP1;ratioP1;P1;durP2;ratioP2;P2;SDS_P1;SDS_P2;PMS_P1;PMS_P2;Temp;Humidity;BMP_temperature;BMP_pressure;BME280_temperature;BME280_humidity;BME280_pressure;Samples;Min_cycle;Max_cycle;Signal;HPM_P1;HPM_P2
2022/10/27 00:00:44;;;;;;;12.33;3.67;;;20.40;71.80;;;;;;4936690;28;20207;-91
2022/10/27 00:03:12;;;;;;;11.73;4.73;;;20.40;71.80;;;;;;4931226;28;20320;-92
2022/10/27 00:05:41;;;;;;;11.53;4.57;;;20.40;72.70;;;;;;4930257;29;20649;-91
2022/10/27 00:08:12;;;;;;;13.97;5.13;;;20.40;71.80;;;;;;4941772;28;20239;-93
2022/10/27 00:10:44;;;;;;;11.90;4.50;;;20.30;72.00;;;;;;4935011;29;20214;-93
2022/10/27 00:13:12;;;;;;;10.90;4.43;;;20.30;72.30;;;;;;4934333;29;20223;-93
2022/10/27 00:15:41;;;;;;;9.13;3.67;;;20.30;72.20;;;;;;4933995;29;20232;-94
2022/10/27 00:18:11;;;;;;;8.37;3.90;;;20.20;72.30;;;;;;4934339;29;20254;-91
2022/10/27 00:20:40;;;;;;;7.30;3.83;;;20.20;72.10;;;;;;4935591;28;20912;-91
2022/10/27 00:23:07;;;;;;;9.97;4.00;;;20.10;72.10;;;;;;4933147;29;20688;-90
2022/10/27 00:25:35;;;;;;;10.50;4.43;;;20.10;72.10;;;;;;4925776;28;20295;-91
2022/10/27 00:28:05;;;;;;;18.47;6.23;;;20.10;72.30;;;;;;4928045;29;20235;-91
2022/10/27 00:30:38;;;;;;;10.97;4.60;;;20.10;72.50;;;;;;4928989;28;20200;-92
2022/10/27 00:33:05;;;;;;;10.73;4.53;;;20.00;72.70;;;;;;4928950;29;20307;-89
2022/10/27 00:35:32;;;;;;;10.10;4.13;;;20.00;72.40;;;;;;4932457;29;20275;-91
2022/10/27 00:37:59;;;;;;;12.50;5.03;;;20.00;72.60;;;;;;4926266;28;20672;-91
2022/10/27 00:40:26;;;;;;;11.50;4.40;;;19.90;72.60;;;;;;4932934;28;20219;-88
2022/10/27 00:42:53;;;;;;;8.03;3.73;;;19.90;72.60;;;;;;4931957;28;20231;-96
2022/10/27 00:45:22;;;;;;;12.20;4.50;;;19.90;72.60;;;;;;4994995;28;20291;-91
2022/10/27 00:47:50;;;;;;;8.67;4.03;;;19.80;72.80;;;;;;4932041;28;20283;-89
2022/10/27 00:50:22;;;;;;;8.97;3.97;;;19.80;72.80;;;;;;4931049;29;20236;-90
2022/10/27 00:52:53;;;;;;;10.90;4.50;;;19.80;73.20;;;;;;4932173;28;20307;-90
2022/10/27 00:55:26;;;;;;;8.63;3.40;;;19.70;73.20;;;;;;4930177;28;21003;-89
2022/10/27 00:57:57;;;;;;;9.73;4.27;;;19.70;73.40;;;;;;4932497;28;20271;-90
2022/10/27 01:00:31;;;;;;;10.43;3.80;;;19.70;73.40;;;;;;4931008;29;20319;-90
2022/10/27 01:02:59;;;;;;;12.07;4.70;;;19.70;73.60;;;;;;4996550;28;20235;-90
2022/10/27 01:05:28;;;;;;;8.67;3.90;;;19.70;73.50;;;;;;4931279;28;20314;-89
2022/10/27 01:07:58;;;;;;;10.77;3.80;;;19.60;73.50;;;;;;4933974;28;20291;-89
2022/10/27 01:10:27;;;;;;;12.27;4.60;;;19.60;73.70;;;;;;4933947;28;20235;-89
2022/10/27 01:12:55;;;;;;;9.47;4.47;;;19.60;73.70;;;;;;4932212;28;20289;-91
2022/10/27 01:15:25;;;;;;;9.20;4.17;;;19.60;73.70;;;;;;4934342;28;20231;-88
2022/10/27 01:18:02;;;;;;;10.60;4.50;;;19.60;73.80;;;;;;4931811;28;20208;-88
2022/10/27 01:21:02;;;;;;;9.17;4.27;;;19.50;74.50;;;;;;4927402;29;20675;-91
2022/10/27 01:23:49;;;;;;;7.73;3.50;;;19.50;74.30;;;;;;4932086;28;20258;-91
2022/10/27 01:26:47;;;;;;;8.17;4.10;;;19.50;74.20;;;;;;4927080;28;20212;-90
2022/10/27 01:29:52;;;;;;;8.00;3.87;;;19.40;74.00;;;;;;4931074;28;20243;-90
2022/10/27 01:32:30;;;;;;;11.17;4.73;;;19.40;74.10;;;;;;4916168;29;20255;-90
2022/10/27 01:35:03;;;;;;;11.30;4.53;;;19.40;73.90;;;;;;4920605;29;20238;-90
2022/10/27 01:37:37;;;;;;;10.80;4.77;;;19.40;73.80;;;;;;4929728;28;20303;-90
2022/10/27 01:40:17;;;;;;;9.33;4.27;;;19.30;73.90;;;;;;4930452;28;20286;-90
2022/10/27 01:42:48;;;;;;;12.00;4.10;;;19.30;74.00;;;;;;4931453;28;20754;-89
2022/10/27 01:45:21;;;;;;;8.73;3.70;;;19.30;74.00;;;;;;4931581;28;20255;-93
2022/10/27 01:47:51;;;;;;;8.10;3.60;;;19.20;74.00;;;;;;4930562;28;20218;-91
2022/10/27 01:50:20;;;;;;;11.30;4.43;;;19.20;74.20;;;;;;4929936;28;20212;-90
2022/10/27 01:52:50;;;;;;;9.90;4.10;;;19.20;74.30;;;;;;4930528;29;20234;-91
2022/10/27 01:55:23;;;;;;;14.33;4.93;;;19.20;74.40;;;;;;4926384;29;20662;-90
2022/10/27 01:58:16;;;;;;;13.17;4.90;;;19.10;74.60;;;;;;4928039;29;20614;-90
2022/10/27 02:00:56;;;;;;;10.37;4.53;;;19.10;75.20;;;;;;4911791;28;20216;-90
2022/10/27 02:03:31;;;;;;;10.90;4.07;;;19.10;75.10;;;;;;4921190;28;20308;-90
2022/10/27 02:06:07;;;;;;;14.47;4.43;;;19.10;74.90;;;;;;4932289;29;20240;-90
2022/10/27 02:08:40;;;;;;;9.80;4.57;;;19.00;74.90;;;;;;4926873;28;20621;-91
2022/10/27 02:11:09;;;;;;;12.47;5.27;;;19.00;75.20;;;;;;4931425;29;20748;-89
2022/10/27 02:13:40;;;;;;;11.90;4.67;;;19.00;74.80;;;;;;4930140;29;20226;-91
2022/10/27 02:16:12;;;;;;;10.47;4.83;;;19.00;74.90;;;;;;4928263;28;20278;-90
2022/10/27 02:18:47;;;;;;;9.30;4.00;;;19.00;75.00;;;;;;4934089;28;20225;-91
2022/10/27 02:21:17;;;;;;;8.77;3.67;;;19.00;75.30;;;;;;4932582;29;20203;-91
2022/10/27 02:23:47;;;;;;;8.33;3.77;;;19.00;75.10;;;;;;4917510;28;20232;-91
2022/10/27 02:26:21;;;;;;;11.57;4.00;;;18.90;74.80;;;;;;4929304;29;20240;-91
2022/10/27 02:28:54;;;;;;;10.57;4.00;;;18.90;75.20;;;;;;4931819;29;20635;-90
2022/10/27 02:31:24;;;;;;;12.27;4.60;;;18.90;75.20;;;;;;4915049;29;20213;-91
2022/10/27 02:33:54;;;;;;;9.97;3.90;;;18.80;75.10;;;;;;4912439;29;20295;-90
2022/10/27 02:36:21;;;;;;;8.93;4.00;;;18.90;75.40;;;;;;4927561;29;20214;-90
2022/10/27 02:38:48;;;;;;;9.80;3.43;;;18.80;75.10;;;;;;4931739;28;20339;-90
2022/10/27 02:41:18;;;;;;;11.97;4.77;;;18.80;75.00;;;;;;4929678;28;20200;-90
2022/10/27 02:43:52;;;;;;;13.10;4.70;;;18.80;75.40;;;;;;4929023;29;20228;-90
2022/10/27 02:46:19;;;;;;;22.20;6.80;;;18.70;75.30;;;;;;4929211;29;20220;-91
2022/10/27 02:48:46;;;;;;;11.40;4.60;;;18.70;75.00;;;;;;4931035;29;20719;-92
2022/10/27 02:51:17;;;;;;;15.27;5.07;;;18.70;74.90;;;;;;4918505;29;20217;-89
2022/10/27 02:53:45;;;;;;;8.63;3.93;;;18.70;75.20;;;;;;4929713;28;20235;-90
2022/10/27 02:56:16;;;;;;;15.10;4.60;;;18.70;75.00;;;;;;4934115;28;20208;-92
2022/10/27 02:58:44;;;;;;;12.97;4.60;;;18.70;75.20;;;;;;4937638;28;20208;-91
2022/10/27 03:01:10;;;;;;;9.90;4.13;;;18.60;75.20;;;;;;4940630;28;20235;-93
2022/10/27 03:03:38;;;;;;;10.57;4.03;;;18.60;75.20;;;;;;4937202;29;20250;-91
2022/10/27 03:06:06;;;;;;;6.47;3.40;;;18.50;75.30;;;;;;4937522;28;20212;-93
2022/10/27 03:08:38;;;;;;;7.00;3.30;;;18.50;75.20;;;;;;5001168;28;20324;-93
2022/10/27 03:11:07;;;;;;;11.87;4.43;;;18.50;76.10;;;;;;4931460;28;20216;-94
2022/10/27 03:13:36;;;;;;;14.07;5.03;;;18.50;75.30;;;;;;4937761;28;20239;-93
2022/10/27 03:16:09;;;;;;;10.83;3.63;;;18.50;75.50;;;;;;4933660;28;20323;-91
2022/10/27 03:18:39;;;;;;;9.10;3.67;;;18.50;76.00;;;;;;4936297;29;20657;-92
2022/10/27 03:21:06;;;;;;;9.23;4.13;;;18.40;75.30;;;;;;4929483;28;20614;-92
2022/10/27 03:23:36;;;;;;;9.23;3.20;;;18.40;75.30;;;;;;4933229;29;20227;-96
2022/10/27 03:26:09;;;;;;;13.33;4.57;;;18.40;75.30;;;;;;4936670;28;20266;-91
2022/10/27 03:28:38;;;;;;;11.40;4.27;;;18.40;75.70;;;;;;4930681;28;20207;-90
2022/10/27 03:31:07;;;;;;;9.77;3.50;;;18.30;75.60;;;;;;4941130;29;20206;-93
2022/10/27 03:33:35;;;;;;;8.70;3.10;;;18.30;75.60;;;;;;4941489;29;20262;-90
2022/10/27 03:36:04;;;;;;;6.13;2.70;;;18.30;75.50;;;;;;4937420;28;20217;-90
2022/10/27 03:38:31;;;;;;;10.63;4.17;;;18.30;75.60;;;;;;4937242;29;20246;-91
2022/10/27 03:40:58;;;;;;;9.70;3.53;;;18.30;75.80;;;;;;4936537;28;20231;-91
2022/10/27 03:43:30;;;;;;;21.23;6.57;;;18.20;75.70;;;;;;4934219;29;20254;-89
2022/10/27 03:45:57;;;;;;;9.70;3.63;;;18.20;76.10;;;;;;4934993;28;20591;-90
2022/10/27 03:48:24;;;;;;;16.37;5.60;;;18.30;76.20;;;;;;4934769;28;20302;-93
2022/10/27 03:50:52;;;;;;;7.80;3.50;;;18.20;76.00;;;;;;4934050;28;20639;-90
2022/10/27 03:53:20;;;;;;;10.30;4.50;;;18.20;76.20;;;;;;4935494;29;20238;-92
2022/10/27 03:58:33;;;;;;;10.50;4.63;;;18.20;76.40;;;;;;4932551;28;20217;-91
2022/10/27 04:01:04;;;;;;;13.23;4.63;;;18.20;76.70;;;;;;4933766;28;20212;-90
2022/10/27 04:03:30;;;;;;;10.10;4.33;;;18.10;76.80;;;;;;4926541;29;20351;-91
2022/10/27 04:05:58;;;;;;;17.57;5.53;;;18.10;76.40;;;;;;4917261;29;20299;-91
2022/10/27 04:08:28;;;;;;;14.97;5.43;;;18.10;76.50;;;;;;4929016;28;20218;-91
2022/10/27 04:10:55;;;;;;;8.70;3.93;;;18.10;76.70;;;;;;4913427;28;20210;-91
2022/10/27 04:13:22;;;;;;;11.97;4.50;;;18.10;76.50;;;;;;4927997;28;20658;-91
2022/10/27 04:15:50;;;;;;;11.57;4.30;;;18.10;76.50;;;;;;4928042;28;20481;-90
2022/10/27 04:18:21;;;;;;;20.40;7.13;;;18.10;76.70;;;;;;4927705;28;20246;-91
2022/10/27 04:20:48;;;;;;;13.93;5.67;;;18.00;76.80;;;;;;4946214;29;20261;-92
2022/10/27 04:23:17;;;;;;;6.77;3.33;;;18.10;76.70;;;;;;4936035;28;20253;-91
2022/10/27 04:25:44;;;;;;;7.00;3.40;;;18.10;76.80;;;;;;4930151;28;20216;-92
2022/10/27 04:28:11;;;;;;;14.03;5.60;;;18.00;76.80;;;;;;4927791;29;20247;-91
2022/10/27 04:30:42;;;;;;;13.43;4.97;;;18.00;77.10;;;;;;4930944;28;20342;-91
2022/10/27 04:33:11;;;;;;;13.93;5.50;;;18.00;77.30;;;;;;4926535;29;20205;-91
2022/10/27 04:35:38;;;;;;;13.20;4.63;;;18.00;77.40;;;;;;4927788;29;20298;-91
2022/10/27 04:38:05;;;;;;;8.93;3.60;;;17.90;77.40;;;;;;4933671;28;20225;-93
2022/10/27 04:40:34;;;;;;;12.60;4.83;;;17.90;77.30;;;;;;4929778;28;20237;-90
2022/10/27 04:43:02;;;;;;;10.43;3.97;;;17.90;77.50;;;;;;4929719;28;20719;-90
2022/10/27 04:45:29;;;;;;;8.23;3.37;;;17.90;77.60;;;;;;4929588;29;20223;-90
2022/10/27 04:47:56;;;;;;;10.53;4.17;;;17.90;77.50;;;;;;4917634;28;20219;-90
2022/10/27 04:50:24;;;;;;;10.17;4.17;;;17.90;77.80;;;;;;4924774;29;20702;-91
2022/10/27 04:52:55;;;;;;;12.20;4.27;;;17.90;78.30;;;;;;4928889;28;20650;-89
2022/10/27 04:55:23;;;;;;;14.03;5.10;;;17.90;78.40;;;;;;4914367;29;20973;-92
2022/10/27 04:57:50;;;;;;;8.43;3.90;;;17.90;78.10;;;;;;4925040;28;20542;-90
2022/10/27 05:00:17;;;;;;;11.77;4.37;;;17.90;78.20;;;;;;4924792;28;20840;-91
2022/10/27 05:02:44;;;;;;;11.00;3.93;;;17.80;78.20;;;;;;4930836;28;20762;-89
2022/10/27 05:05:12;;;;;;;11.30;4.30;;;17.90;77.90;;;;;;4928684;29;20241;-92
2022/10/27 05:07:44;;;;;;;10.20;4.37;;;17.80;77.90;;;;;;4932480;28;20804;-94
2022/10/27 05:10:13;;;;;;;9.70;3.33;;;17.80;78.20;;;;;;4936126;28;20675;-93
2022/10/27 05:12:41;;;;;;;5.17;2.50;;;17.80;77.90;;;;;;4934858;28;20568;-93
2022/10/27 05:15:09;;;;;;;14.50;5.10;;;17.80;78.10;;;;;;4931751;28;20232;-93
2022/10/27 05:17:39;;;;;;;8.97;3.77;;;17.80;78.40;;;;;;4930082;28;20230;-93
2022/10/27 05:20:09;;;;;;;10.07;3.40;;;17.80;78.60;;;;;;4932112;29;20272;-93
2022/10/27 05:22:38;;;;;;;11.80;4.20;;;17.80;78.40;;;;;;4932472;29;20218;-92
2022/10/27 05:25:10;;;;;;;10.90;3.80;;;17.80;78.40;;;;;;4929190;29;20229;-93
2022/10/27 05:27:43;;;;;;;9.83;3.90;;;17.80;79.00;;;;;;4930845;28;20269;-92
2022/10/27 05:30:15;;;;;;;11.60;3.90;;;17.80;78.90;;;;;;4930548;28;20202;-94
2022/10/27 05:32:49;;;;;;;6.40;2.93;;;17.80;78.70;;;;;;4926631;28;20250;-93
2022/10/27 05:35:16;;;;;;;8.03;3.00;;;17.80;79.00;;;;;;4929707;29;20222;-94
2022/10/27 05:37:46;;;;;;;8.87;3.57;;;17.80;78.70;;;;;;4931898;29;20225;-94
2022/10/27 05:40:19;;;;;;;11.03;4.23;;;17.70;79.10;;;;;;4930954;28;20224;-93
2022/10/27 05:42:56;;;;;;;8.20;3.27;;;17.80;79.20;;;;;;4933124;28;20216;-94
2022/10/27 05:45:25;;;;;;;10.70;3.90;;;17.80;79.70;;;;;;4935939;29;20237;-94
2022/10/27 05:47:58;;;;;;;11.10;3.43;;;17.70;79.20;;;;;;4935830;28;20220;-94
2022/10/27 05:50:33;;;;;;;12.03;4.10;;;17.80;79.70;;;;;;4939179;28;20207;-95
2022/10/27 05:53:02;;;;;;;10.00;3.67;;;17.70;79.70;;;;;;4928276;29;20726;-95
2022/10/27 05:55:30;;;;;;;18.27;5.43;;;17.70;79.80;;;;;;4937607;28;20208;-95
2022/10/27 05:58:00;;;;;;;12.00;3.87;;;17.70;79.90;;;;;;4931359;29;20206;-94
2022/10/27 06:00:30;;;;;;;13.63;4.57;;;17.70;80.00;;;;;;4941121;28;20238;-96
2022/10/27 06:03:03;;;;;;;8.40;3.23;;;17.70;80.10;;;;;;4941790;29;20218;-94
2022/10/27 06:05:37;;;;;;;15.00;5.00;;;17.70;80.20;;;;;;4999353;28;20240;-94
2022/10/27 06:08:05;;;;;;;17.50;4.03;;;17.70;80.00;;;;;;4926909;28;20608;-94
2022/10/27 06:10:34;;;;;;;11.17;4.10;;;17.70;80.00;;;;;;4929755;28;20309;-94
2022/10/27 06:13:04;;;;;;;13.27;4.00;;;17.70;80.10;;;;;;4932460;29;20237;-93
2022/10/27 06:15:35;;;;;;;10.70;3.93;;;17.80;80.10;;;;;;4934957;28;20239;-94
2022/10/27 06:18:03;;;;;;;10.20;3.53;;;17.70;80.40;;;;;;4923816;28;20215;-94
2022/10/27 06:20:30;;;;;;;13.53;3.87;;;17.80;80.80;;;;;;4933153;28;20307;-94
2022/10/27 06:22:57;;;;;;;13.70;4.93;;;17.80;80.80;;;;;;4937830;29;20212;-93
2022/10/27 06:25:24;;;;;;;10.23;3.83;;;17.80;80.80;;;;;;4922874;29;20860;-95
2022/10/27 06:27:53;;;;;;;8.40;3.03;;;17.80;80.80;;;;;;4934672;29;20199;-95
2022/10/27 06:30:21;;;;;;;12.23;4.40;;;17.80;80.90;;;;;;4931775;28;20206;-95
2022/10/27 06:32:54;;;;;;;7.47;2.90;;;17.80;80.80;;;;;;4936127;28;20217;-95
2022/10/27 06:35:22;;;;;;;9.97;3.67;;;17.80;80.70;;;;;;4934344;29;20597;-95
2022/10/27 06:37:49;;;;;;;8.90;3.47;;;17.80;80.40;;;;;;4924182;28;20209;-93
2022/10/27 06:40:19;;;;;;;8.33;3.20;;;17.80;80.20;;;;;;4939263;28;20234;-95
2022/10/27 06:43:01;;;;;;;8.97;3.50;;;17.90;80.50;;;;;;4936672;28;20208;-95
2022/10/27 06:45:30;;;;;;;20.87;6.67;;;17.80;80.20;;;;;;4930900;28;20321;-95
2022/10/27 06:48:00;;;;;;;8.27;3.13;;;17.90;80.40;;;;;;4934845;28;20219;-94
2022/10/27 06:50:28;;;;;;;8.73;3.43;;;17.90;80.20;;;;;;4932973;29;20210;-93
2022/10/27 06:52:57;;;;;;;8.23;2.97;;;17.90;80.20;;;;;;4932759;29;20228;-95
2022/10/27 06:55:25;;;;;;;10.23;3.73;;;17.90;81.20;;;;;;4931172;28;20212;-95
2022/10/27 06:57:52;;;;;;;9.80;3.60;;;17.90;80.10;;;;;;4934990;28;20257;-94
2022/10/27 07:00:19;;;;;;;10.77;3.17;;;17.90;80.40;;;;;;4935320;28;20207;-94
2022/10/27 07:02:51;;;;;;;8.80;3.20;;;17.90;80.60;;;;;;4934249;29;20209;-93
2022/10/27 07:05:19;;;;;;;9.00;3.03;;;17.90;81.00;;;;;;4932772;28;20253;-93
2022/10/27 07:07:51;;;;;;;12.37;4.40;;;17.90;80.80;;;;;;4935070;29;20667;-92
2022/10/27 07:10:19;;;;;;;11.37;3.73;;;17.90;81.10;;;;;;4957091;28;20203;-90
2022/10/27 07:12:56;;;;;;;9.40;3.00;;;17.90;81.10;;;;;;4969185;28;20261;-95
2022/10/27 07:15:26;;;;;;;14.37;5.33;;;17.90;81.50;;;;;;4926306;29;20276;-96
2022/10/27 07:17:59;;;;;;;5.67;1.90;;;17.90;81.20;;;;;;4946142;29;20212;-95
2022/10/27 07:20:28;;;;;;;5.37;2.40;;;18.00;81.80;;;;;;4939819;28;20266;-94
2022/10/27 07:23:10;;;;;;;8.47;2.40;;;18.00;81.90;;;;;;4935032;29;20206;-96
2022/10/27 07:25:40;;;;;;;10.43;3.17;;;18.00;81.80;;;;;;4939506;28;20255;-96
2022/10/27 07:28:07;;;;;;;9.70;3.63;;;18.00;82.00;;;;;;4935536;28;20207;-95
2022/10/27 07:30:38;;;;;;;6.00;2.60;;;18.00;81.90;;;;;;4938268;28;20271;-95
2022/10/27 07:33:13;;;;;;;5.90;2.00;;;18.00;82.40;;;;;;4938566;28;20707;-96
2022/10/27 07:35:41;;;;;;;8.07;2.83;;;18.00;82.90;;;;;;4938330;28;20223;-94
2022/10/27 07:38:09;;;;;;;10.10;3.10;;;18.10;82.30;;;;;;4933291;29;20364;-94
2022/10/27 07:40:36;;;;;;;8.10;3.10;;;18.10;82.70;;;;;;4942513;29;20211;-92
2022/10/27 07:43:04;;;;;;;7.40;2.50;;;18.10;82.40;;;;;;4930388;29;20217;-94
2022/10/27 07:45:45;;;;;;;10.93;3.33;;;18.20;82.40;;;;;;4937561;29;20255;-95
2022/10/27 07:48:16;;;;;;;6.37;2.47;;;18.20;83.00;;;;;;4938028;28;20199;-94
2022/10/27 07:50:45;;;;;;;6.43;2.60;;;18.20;82.90;;;;;;4932225;29;20231;-95
2022/10/27 07:59:06;;;;;;;15.97;4.90;;;18.30;83.30;;;;;;4930439;28;20243;-95
2022/10/27 08:01:33;;;;;;;9.77;3.83;;;18.40;82.90;;;;;;4937833;28;20215;-95
2022/10/27 08:04:11;;;;;;;8.30;3.00;;;18.40;82.50;;;;;;4939848;28;20261;-94
2022/10/27 08:06:44;;;;;;;7.77;2.83;;;18.40;82.50;;;;;;4938711;28;20219;-96
2022/10/27 08:09:14;;;;;;;7.57;2.67;;;18.50;82.50;;;;;;4941800;29;20212;-93
2022/10/27 08:12:02;;;;;;;11.07;2.90;;;18.50;82.20;;;;;;4952934;28;20228;-96
2022/10/27 08:14:34;;;;;;;7.73;3.13;;;18.60;82.60;;;;;;4950075;29;20216;-95
2022/10/27 08:17:04;;;;;;;8.80;2.90;;;18.60;82.50;;;;;;4938634;28;20296;-95
2022/10/27 08:19:36;;;;;;;10.63;3.77;;;18.60;82.40;;;;;;4929064;28;20218;-95
2022/10/27 08:22:09;;;;;;;6.73;2.73;;;18.70;82.40;;;;;;4933494;28;20225;-95
2022/10/27 08:24:36;;;;;;;6.23;2.50;;;18.70;82.60;;;;;;4921121;29;20277;-94
2022/10/27 08:27:03;;;;;;;8.23;3.03;;;18.80;82.50;;;;;;4932825;28;20273;-95
2022/10/27 08:29:33;;;;;;;8.50;2.73;;;18.80;82.30;;;;;;4934899;28;20215;-94
2022/10/27 08:35:03;;;;;;;16.70;4.93;;;19.00;82.60;;;;;;4941322;28;20207;-96
2022/10/27 08:37:31;;;;;;;9.40;3.03;;;19.00;82.60;;;;;;4933763;29;20212;-95
2022/10/27 08:40:16;;;;;;;7.43;3.40;;;19.00;82.10;;;;;;4936986;28;20211;-96
2022/10/27 08:42:52;;;;;;;6.87;2.63;;;19.10;82.10;;;;;;4935905;28;20227;-96
2022/10/27 08:45:24;;;;;;;9.60;2.90;;;19.20;82.30;;;;;;4932366;29;20235;-95
2022/10/27 08:48:01;;;;;;;7.60;2.83;;;19.30;81.70;;;;;;4933943;28;20208;-96
2022/10/27 08:50:42;;;;;;;7.60;2.80;;;19.30;81.20;;;;;;4933463;28;20247;-94
2022/10/27 08:53:15;;;;;;;9.87;3.33;;;19.40;80.70;;;;;;4936724;28;20206;-94
2022/10/27 08:56:03;;;;;;;8.27;3.10;;;19.40;80.50;;;;;;4948042;29;20212;-96
2022/10/27 08:58:39;;;;;;;4.73;2.07;;;19.50;80.00;;;;;;4954621;28;20223;-96
2022/10/27 09:01:30;;;;;;;7.07;2.43;;;19.50;80.10;;;;;;5001726;28;20954;-95
2022/10/27 09:04:16;;;;;;;11.60;3.90;;;19.50;79.50;;;;;;4914258;29;20662;-93
2022/10/27 09:06:54;;;;;;;5.20;2.57;;;19.60;79.30;;;;;;4933349;28;20286;-93
2022/10/27 09:09:27;;;;;;;8.40;2.83;;;19.60;79.00;;;;;;4932584;28;20294;-95
2022/10/27 09:12:09;;;;;;;6.50;2.77;;;19.60;78.70;;;;;;4935290;28;20250;-92
2022/10/27 09:15:02;;;;;;;9.43;2.80;;;19.60;78.80;;;;;;4933742;28;20220;-95
2022/10/27 09:17:37;;;;;;;6.50;2.43;;;19.70;79.00;;;;;;4935200;28;20240;-93
2022/10/27 09:20:14;;;;;;;7.63;3.37;;;19.70;78.80;;;;;;4934968;28;20207;-94
2022/10/27 09:22:48;;;;;;;7.43;2.50;;;19.70;78.30;;;;;;4928534;28;20227;-96
2022/10/27 09:25:19;;;;;;;5.93;2.13;;;19.80;78.20;;;;;;4934929;28;20293;-96
2022/10/27 09:27:51;;;;;;;4.87;2.67;;;19.80;78.40;;;;;;4935707;28;20208;-93
2022/10/27 09:30:20;;;;;;;10.80;3.13;;;19.80;78.70;;;;;;4933865;29;20315;-95
2022/10/27 09:32:53;;;;;;;4.53;2.63;;;19.80;78.30;;;;;;4933579;29;20214;-93
2022/10/27 09:35:27;;;;;;;7.80;2.83;;;19.90;78.10;;;;;;4932539;28;20231;-94
2022/10/27 09:38:10;;;;;;;7.37;2.37;;;19.90;78.10;;;;;;4938984;28;20230;-96
2022/10/27 09:40:45;;;;;;;5.57;2.80;;;20.00;78.60;;;;;;4934781;28;20285;-94
2022/10/27 09:43:13;;;;;;;8.67;3.27;;;20.00;78.30;;;;;;4932529;28;20207;-94
2022/10/27 09:45:42;;;;;;;8.20;2.77;;;20.00;78.20;;;;;;4934285;28;20306;-94
2022/10/27 09:48:25;;;;;;;18.13;4.37;;;20.00;78.00;;;;;;4933926;29;20238;-96
2022/10/27 09:50:57;;;;;;;6.70;2.73;;;20.00;77.60;;;;;;4935113;29;20211;-95
2022/10/27 09:53:49;;;;;;;12.27;3.87;;;20.10;77.60;;;;;;4914505;28;20212;-94
2022/10/27 09:56:20;;;;;;;10.33;3.73;;;20.10;77.10;;;;;;4916261;29;20291;-93
2022/10/27 09:59:01;;;;;;;7.57;3.23;;;20.10;77.10;;;;;;4934470;28;20208;-94
2022/10/27 10:01:48;;;;;;;10.73;3.63;;;20.10;77.10;;;;;;4933619;29;20235;-95
2022/10/27 10:04:22;;;;;;;9.87;3.33;;;20.10;76.90;;;;;;4935460;28;20220;-93
2022/10/27 10:06:57;;;;;;;7.57;2.70;;;20.10;77.10;;;;;;4934932;28;20364;-94
2022/10/27 10:09:35;;;;;;;6.77;3.33;;;20.20;77.60;;;;;;4929939;29;20255;-95
2022/10/27 10:12:30;;;;;;;8.73;3.77;;;20.20;78.00;;;;;;4917424;28;20213;-96
2022/10/27 10:15:17;;;;;;;8.23;3.33;;;20.20;77.80;;;;;;4915008;29;20238;-94
2022/10/27 10:17:53;;;;;;;5.87;2.73;;;20.30;78.30;;;;;;4937780;29;20212;-94
2022/10/27 10:20:31;;;;;;;8.00;3.17;;;20.30;78.60;;;;;;4937262;29;20215;-93
2022/10/27 10:23:02;;;;;;;14.20;5.37;;;20.30;78.90;;;;;;4934324;28;20212;-95
2022/10/27 10:25:46;;;;;;;14.40;4.47;;;20.20;79.10;;;;;;4934234;28;20267;-95
2022/10/27 10:28:31;;;;;;;8.03;2.90;;;20.30;79.50;;;;;;4936528;29;20212;-96
2022/10/27 10:31:00;;;;;;;8.43;3.63;;;20.30;80.10;;;;;;4939994;28;20275;-93
2022/10/27 10:33:45;;;;;;;12.40;4.20;;;20.30;79.90;;;;;;4940872;28;20563;-94
2022/10/27 10:36:25;;;;;;;7.87;3.27;;;20.30;79.80;;;;;;4945151;28;20212;-96
2022/10/27 10:38:57;;;;;;;8.57;3.67;;;20.30;80.10;;;;;;4935184;28;20208;-94
2022/10/27 10:41:27;;;;;;;9.23;3.77;;;20.30;79.90;;;;;;4932282;29;20216;-94
2022/10/27 10:44:13;;;;;;;12.10;4.07;;;20.40;80.00;;;;;;4938446;28;20212;-96
2022/10/27 10:46:50;;;;;;;11.50;4.23;;;20.40;80.20;;;;;;4922980;28;20236;-93
2022/10/27 10:49:26;;;;;;;10.90;3.30;;;20.50;79.90;;;;;;4925645;28;20212;-94
2022/10/27 10:51:57;;;;;;;11.73;4.33;;;20.50;80.10;;;;;;4935603;28;20211;-95
2022/10/27 10:54:40;;;;;;;16.07;4.23;;;20.50;80.00;;;;;;4935353;28;20290;-95
2022/10/27 10:57:26;;;;;;;9.07;3.93;;;20.60;80.30;;;;;;4935240;29;20201;-93
2022/10/27 10:59:55;;;;;;;4.90;2.43;;;20.60;80.60;;;;;;4935951;28;20201;-94
2022/10/27 11:02:29;;;;;;;7.23;3.10;;;20.70;80.10;;;;;;4935503;29;20274;-96
2022/10/27 11:04:58;;;;;;;9.23;3.40;;;20.70;79.90;;;;;;4936169;28;20303;-94
2022/10/27 11:07:30;;;;;;;6.57;3.17;;;20.80;79.70;;;;;;4999436;28;20739;-95
2022/10/27 11:10:02;;;;;;;11.73;4.43;;;20.80;79.90;;;;;;4934683;29;20232;-94
2022/10/27 11:12:37;;;;;;;14.00;4.33;;;20.90;79.70;;;;;;4934437;28;20207;-95
2022/10/27 11:15:13;;;;;;;12.80;4.33;;;21.00;79.70;;;;;;4933199;28;20284;-94
2022/10/27 11:17:44;;;;;;;8.07;3.40;;;21.00;79.80;;;;;;4931830;28;20223;-95
2022/10/27 11:20:24;;;;;;;6.93;2.97;;;21.10;80.90;;;;;;4936989;28;20215;-95
2022/10/27 11:23:00;;;;;;;8.87;3.43;;;21.20;80.50;;;;;;4937227;29;20278;-95
2022/10/27 11:25:38;;;;;;;11.03;4.10;;;21.40;80.90;;;;;;4938834;29;20291;-94
2022/10/27 11:28:15;;;;;;;9.77;3.53;;;21.50;79.80;;;;;;4936181;28;20212;-93
2022/10/27 11:30:51;;;;;;;12.10;3.87;;;21.70;79.40;;;;;;4937236;28;20202;-95
2022/10/27 11:33:27;;;;;;;8.67;3.80;;;21.90;78.80;;;;;;4939194;28;20234;-96
2022/10/27 11:36:02;;;;;;;13.73;4.37;;;22.00;77.90;;;;;;4940468;29;20204;-94
2022/10/27 11:38:47;;;;;;;6.80;2.97;;;22.20;77.20;;;;;;4938516;29;20270;-96
2022/10/27 11:41:22;;;;;;;8.37;2.97;;;22.30;76.40;;;;;;5003939;28;20207;-93
2022/10/27 11:44:02;;;;;;;14.57;4.53;;;22.40;75.70;;;;;;4938863;28;20205;-93
2022/10/27 11:46:40;;;;;;;8.73;3.27;;;22.40;75.30;;;;;;4937765;28;20317;-94
2022/10/27 11:49:17;;;;;;;8.90;3.43;;;22.40;74.70;;;;;;5002852;28;20210;-94
2022/10/27 11:51:49;;;;;;;11.33;4.97;;;22.50;74.30;;;;;;5000971;28;20204;-94
2022/10/27 11:54:17;;;;;;;11.70;4.20;;;22.50;74.10;;;;;;4919005;28;20636;-93
2022/10/27 11:56:59;;;;;;;8.67;3.17;;;22.50;74.00;;;;;;4936803;29;20215;-94
2022/10/27 11:59:40;;;;;;;11.07;3.93;;;22.50;74.00;;;;;;4941088;28;20209;-96
2022/10/27 12:02:26;;;;;;;8.20;3.47;;;22.50;74.10;;;;;;4942719;29;20214;-95
2022/10/27 12:05:00;;;;;;;10.67;3.83;;;22.50;73.20;;;;;;4942838;28;20204;-94
2022/10/27 12:07:51;;;;;;;12.70;4.17;;;22.60;73.10;;;;;;4936166;28;20325;-94
2022/10/27 12:10:26;;;;;;;10.87;4.33;;;22.50;73.00;;;;;;4938614;28;20679;-95
2022/10/27 12:13:01;;;;;;;10.03;4.20;;;22.60;73.20;;;;;;4938687;28;20235;-93
2022/10/27 12:15:37;;;;;;;9.37;3.97;;;22.60;73.10;;;;;;4930287;28;20236;-96
2022/10/27 12:18:13;;;;;;;13.30;4.87;;;22.70;73.20;;;;;;4930794;28;20203;-94
2022/10/27 12:20:45;;;;;;;11.40;4.27;;;22.60;72.90;;;;;;4923298;29;20208;-93
2022/10/27 12:23:17;;;;;;;10.70;4.13;;;22.70;72.40;;;;;;4930042;28;20208;-95
2022/10/27 12:25:52;;;;;;;9.07;4.43;;;22.80;72.50;;;;;;4937449;28;20315;-93
2022/10/27 12:28:21;;;;;;;10.17;4.17;;;22.80;72.30;;;;;;4943498;28;20215;-95
2022/10/27 12:30:50;;;;;;;10.97;3.87;;;22.90;72.50;;;;;;4932664;29;20264;-92
2022/10/27 12:33:27;;;;;;;13.97;3.90;;;22.90;72.30;;;;;;4932579;28;20223;-95
2022/10/27 12:36:02;;;;;;;5.87;3.57;;;22.90;71.70;;;;;;4933640;29;20238;-94
2022/10/27 12:38:45;;;;;;;7.53;3.40;;;22.90;71.80;;;;;;4921674;29;20245;-93
2022/10/27 12:41:21;;;;;;;8.10;3.30;;;23.00;71.80;;;;;;4917087;29;20198;-95
2022/10/27 12:43:56;;;;;;;11.90;3.93;;;23.00;71.50;;;;;;4931010;29;20221;-95
2022/10/27 12:46:38;;;;;;;7.80;3.70;;;23.10;71.30;;;;;;4933468;28;20289;-94
2022/10/27 12:49:14;;;;;;;8.30;3.23;;;23.10;71.30;;;;;;4929035;28;20222;-93
2022/10/27 12:52:01;;;;;;;8.40;3.87;;;23.10;71.20;;;;;;4934923;29;20285;-93
2022/10/27 12:54:44;;;;;;;12.30;4.93;;;23.10;70.90;;;;;;4937642;28;20234;-92
2022/10/27 12:57:34;;;;;;;8.07;3.63;;;23.20;71.00;;;;;;4927993;29;20247;-92
2022/10/27 13:00:09;;;;;;;11.53;4.53;;;23.20;70.90;;;;;;4932167;28;20212;-95
2022/10/27 13:02:46;;;;;;;7.33;3.33;;;23.20;71.10;;;;;;4934168;29;20245;-93
2022/10/27 13:05:55;;;;;;;6.80;3.33;;;23.30;71.40;;;;;;4933596;29;20691;-94
2022/10/27 13:08:54;;;;;;;9.37;3.70;;;23.30;71.10;;;;;;4932566;28;20258;-92
2022/10/27 13:12:07;;;;;;;6.77;3.33;;;23.40;71.40;;;;;;4934436;28;20624;-95
2022/10/27 13:14:59;;;;;;;9.23;4.17;;;23.50;71.20;;;;;;4934349;29;20654;-93
2022/10/27 13:17:36;;;;;;;7.23;3.50;;;23.60;71.70;;;;;;4932578;29;20561;-93
2022/10/27 13:20:14;;;;;;;10.17;3.70;;;23.80;70.90;;;;;;4932644;28;20231;-92
2022/10/27 13:22:46;;;;;;;7.63;3.73;;;23.90;71.40;;;;;;4932883;29;20281;-93
2022/10/27 13:25:19;;;;;;;11.77;4.03;;;24.10;71.20;;;;;;4932301;29;20222;-96